createdAt,value
2018-04-28T00:02:32.225Z,3.10
2018-04-28T00:08:42.108Z,3.17
2018-04-28T00:14:47.042Z,3.40
2018-04-28T00:27:24.076Z,2.73
2018-04-28T00:33:31.829Z,4.30
2018-04-28T00:39:52.276Z,3.07
2018-04-28T00:46:19.747Z,3.37
2018-04-28T00:52:28.683Z,3.40
2018-04-28T00:59:03.230Z,4.40
2018-04-28T01:05:10.497Z,2.90
2018-04-28T01:18:10.209Z,3.60
2018-04-28T01:31:14.316Z,3.87
2018-04-28T01:37:52.394Z,4.13
2018-04-28T01:44:11.805Z,4.37
2018-04-28T01:50:17.090Z,4.03
2018-04-28T01:56:37.688Z,4.93
2018-04-28T02:02:49.907Z,4.10
2018-04-28T02:09:09.809Z,3.93
2018-04-28T02:15:34.693Z,5.13
2018-04-28T02:22:06.639Z,5.03
2018-04-28T02:28:33.194Z,4.80
2018-04-28T02:34:55.477Z,4.37
2018-04-28T02:48:00.389Z,3.90
2018-04-28T02:54:07.988Z,4.80
2018-04-28T03:06:51.912Z,4.23
2018-04-28T03:12:57.111Z,4.77
2018-04-28T03:19:18.487Z,5.10
2018-04-28T03:25:39.856Z,4.97
2018-04-28T03:31:48.089Z,4.93
2018-04-28T03:37:58.499Z,4.97
2018-04-28T03:44:05.210Z,4.70
2018-04-28T03:50:16.042Z,4.80
2018-04-28T04:03:09.594Z,5.27
2018-04-28T04:15:54.037Z,4.27
2018-04-28T04:22:03.869Z,4.67
2018-04-28T04:28:08.675Z,4.13
2018-04-28T04:34:14.063Z,3.63
2018-04-28T04:47:29.188Z,4.43
2018-04-28T04:53:40.950Z,3.90
2018-04-28T05:13:31.625Z,3.53
2018-04-28T05:19:39.184Z,4.10
2018-04-28T05:26:00.180Z,3.77
2018-04-28T05:32:14.049Z,4.10
2018-04-28T05:38:40.498Z,4.87
2018-04-28T05:51:52.214Z,4.70
2018-04-28T05:58:12.756Z,5.40
2018-04-28T06:04:43.518Z,4.13
2018-04-28T06:17:48.890Z,3.70
2018-04-28T06:23:53.520Z,3.30
2018-04-28T06:29:57.554Z,3.20
2018-04-28T06:36:01.589Z,2.73
2018-04-28T06:42:05.628Z,2.70
2018-04-28T06:48:09.667Z,3.20
2018-04-28T06:54:13.784Z,2.60
2018-04-28T07:00:17.835Z,3.60
2018-04-28T07:06:23.060Z,3.17
2018-04-28T07:12:27.364Z,2.73
2018-04-28T07:18:31.399Z,2.83
2018-04-28T07:24:36.233Z,3.67
2018-04-28T07:30:40.487Z,3.00
2018-04-28T07:36:44.594Z,3.70
2018-04-28T07:42:48.854Z,3.80
2018-04-28T07:48:54.442Z,3.27
2018-04-28T07:54:58.773Z,3.17
2018-04-28T08:01:02.874Z,3.03
2018-04-28T08:07:07.015Z,3.13
2018-04-28T08:13:11.159Z,2.60
2018-04-28T08:19:16.053Z,2.57
2018-04-28T08:25:20.240Z,2.50
2018-04-28T08:31:24.485Z,2.70
2018-04-28T08:37:29.349Z,2.80
2018-04-28T08:43:33.502Z,2.83
2018-04-28T08:49:37.602Z,2.57
2018-04-28T08:55:42.499Z,2.20
2018-04-28T09:01:47.318Z,2.73
2018-04-28T09:07:51.377Z,2.17
2018-04-28T09:13:55.842Z,2.50
2018-04-28T09:20:00.210Z,2.57
2018-04-28T09:26:04.647Z,2.83
2018-04-28T09:32:08.992Z,2.40
2018-04-28T09:38:13.354Z,2.50
2018-04-28T09:44:17.726Z,3.50
2018-04-28T09:50:22.715Z,2.90
2018-04-28T09:56:27.227Z,2.90
2018-04-28T10:02:31.609Z,3.50
2018-04-28T10:08:35.975Z,2.27
2018-04-28T10:14:40.333Z,2.80
2018-04-28T10:20:44.685Z,3.47
2018-04-28T10:26:49.253Z,2.73
2018-04-28T10:32:53.726Z,3.13
2018-04-28T10:38:58.094Z,2.90
2018-04-28T10:45:03.287Z,2.53
2018-04-28T10:51:07.663Z,2.33
2018-04-28T10:57:12.789Z,3.10
2018-04-28T11:03:17.143Z,3.20
2018-04-28T11:09:22.494Z,2.63
2018-04-28T11:15:26.870Z,2.90
2018-04-28T11:21:31.222Z,2.60
2018-04-28T11:27:35.579Z,3.40
2018-04-28T11:33:40.259Z,2.37
2018-04-28T11:39:44.620Z,3.47
2018-04-28T11:45:49.044Z,3.00
2018-04-28T11:51:53.460Z,2.90
2018-04-28T11:57:58.623Z,2.33
2018-04-28T12:04:03.071Z,2.60
2018-04-28T12:10:07.424Z,2.70
2018-04-28T12:16:11.774Z,3.00
2018-04-28T12:22:16.979Z,2.60
2018-04-28T12:28:22.367Z,1.83
2018-04-28T12:34:26.758Z,2.60
2018-04-28T12:40:31.138Z,2.40
2018-04-28T12:46:35.488Z,2.40
2018-04-28T12:52:40.617Z,2.73
2018-04-28T12:58:44.980Z,2.50
2018-04-28T13:04:49.577Z,2.30
2018-04-28T13:10:54.766Z,2.33
2018-04-28T13:16:59.126Z,1.80
2018-04-28T13:23:04.474Z,2.00
2018-04-28T13:29:08.874Z,2.40
2018-04-28T13:35:14.036Z,1.60
2018-04-28T13:41:18.496Z,1.63
2018-04-28T13:47:23.175Z,1.93
2018-04-28T13:53:27.527Z,1.77
2018-04-28T13:59:31.994Z,1.63
2018-04-28T14:05:36.341Z,1.60
2018-04-28T14:11:41.465Z,2.00
2018-04-28T14:17:45.876Z,2.20
2018-04-28T14:23:50.398Z,1.80
2018-04-28T14:29:54.922Z,1.40
2018-04-28T14:35:59.372Z,1.93
2018-04-28T14:42:03.737Z,3.67
2018-04-28T14:48:08.867Z,1.40
2018-04-28T14:54:13.252Z,1.70
2018-04-28T15:00:17.607Z,1.73
2018-04-28T15:06:22.102Z,1.77
2018-04-28T15:12:26.463Z,1.40
2018-04-28T15:18:30.845Z,1.33
2018-04-28T15:24:35.288Z,1.47
2018-04-28T15:30:39.651Z,4.97
2018-04-28T15:36:44.775Z,1.40
2018-04-28T15:42:49.125Z,1.57
2018-04-28T15:48:53.677Z,2.70
2018-04-28T15:54:58.075Z,10.40
2018-04-28T16:01:03.192Z,1.80
2018-04-28T16:07:07.559Z,2.00
2018-04-28T16:13:12.028Z,1.60
2018-04-28T16:19:16.393Z,1.70
2018-04-28T16:25:21.556Z,1.43
2018-04-28T16:31:25.943Z,1.40
2018-04-28T16:37:30.292Z,1.10
2018-04-28T16:43:34.655Z,1.40
2018-04-28T16:49:39.044Z,1.57
2018-04-28T16:55:43.401Z,1.23
2018-04-28T17:01:47.855Z,1.30
2018-04-28T17:07:52.249Z,1.47
2018-04-28T17:13:56.640Z,1.90
2018-04-28T17:20:00.986Z,1.33
2018-04-28T17:26:05.346Z,1.43
2018-04-28T17:32:09.826Z,2.57
2018-04-28T17:38:14.196Z,1.40
2018-04-28T17:44:18.685Z,2.00
2018-04-28T17:50:23.221Z,1.30
2018-04-28T17:56:27.572Z,1.20
2018-04-28T18:02:31.943Z,1.70
2018-04-28T18:08:36.303Z,1.43
2018-04-28T18:14:40.693Z,1.20
2018-04-28T18:20:45.031Z,1.60
2018-04-28T18:26:49.521Z,1.70
2018-04-28T18:32:54.123Z,1.90
2018-04-28T18:38:58.551Z,1.47
2018-04-28T18:45:03.705Z,1.97
2018-04-28T18:51:09.649Z,1.87
2018-04-28T18:57:14.092Z,2.10
2018-04-28T19:03:18.456Z,2.10
2018-04-28T19:09:23.400Z,1.70
2018-04-28T19:15:27.779Z,2.27
2018-04-28T19:21:32.139Z,1.43
2018-04-28T19:27:37.276Z,1.63
2018-04-28T19:33:41.638Z,2.60
2018-04-28T19:39:45.996Z,2.13
2018-04-28T19:45:51.287Z,1.93
2018-04-28T19:51:55.718Z,1.50
2018-04-28T19:58:00.132Z,1.60
2018-04-28T20:04:04.535Z,1.87
2018-04-28T20:10:09.071Z,1.67
2018-04-28T20:16:14.284Z,2.00
2018-04-28T20:22:36.566Z,1.80
2018-04-28T20:28:41.677Z,1.87
2018-04-28T20:34:46.058Z,2.37
2018-04-28T20:40:50.439Z,1.87
2018-04-28T20:46:54.864Z,1.60
2018-04-28T20:53:00.000Z,2.13
2018-04-28T20:59:04.355Z,2.77
2018-04-28T21:05:09.475Z,1.77
2018-04-28T21:11:13.933Z,2.50
2018-04-28T21:17:18.305Z,2.17
2018-04-28T21:23:23.436Z,1.90
2018-04-28T21:29:27.795Z,2.70
2018-04-28T21:35:32.158Z,2.30
2018-04-28T21:41:36.532Z,2.60
2018-04-28T21:47:40.930Z,2.60
2018-04-28T21:53:45.287Z,2.10
2018-04-28T21:59:50.019Z,2.57
2018-04-28T22:05:54.720Z,2.40
2018-04-28T22:11:59.099Z,1.90
2018-04-28T22:18:04.257Z,2.33
2018-04-28T22:24:08.606Z,2.43
2018-04-28T22:30:12.973Z,3.40
2018-04-28T22:36:17.344Z,2.47
2018-04-28T22:42:21.699Z,2.90
2018-04-28T22:48:26.216Z,2.73
2018-04-28T22:54:30.733Z,2.00
2018-04-28T23:00:42.495Z,2.07
2018-04-28T23:06:47.382Z,2.40
2018-04-28T23:12:52.071Z,2.30
2018-04-28T23:18:57.266Z,2.20
2018-04-28T23:25:01.799Z,2.27
2018-04-28T23:31:06.156Z,2.23
2018-04-28T23:37:10.526Z,2.23
2018-04-28T23:43:14.888Z,2.23
2018-04-28T23:49:20.053Z,2.40
2018-04-28T23:55:24.610Z,1.83
